createdAt,value
2022-08-08T00:02:04.024Z,98232.25
2022-08-08T00:04:36.289Z,98230.09
2022-08-08T00:07:15.639Z,98227.53
2022-08-08T00:09:54.629Z,98233.22
2022-08-08T00:12:31.263Z,98235.50
2022-08-08T00:15:05.189Z,98226.59
2022-08-08T00:17:58.626Z,98226.44
2022-08-08T00:20:40.476Z,98225.81
2022-08-08T00:23:14.812Z,98228.38
2022-08-08T00:25:50.834Z,98228.81
2022-08-08T00:28:35.817Z,98227.50
2022-08-08T00:32:29.127Z,98231.19
2022-08-08T00:34:39.753Z,98229.78
2022-08-08T00:37:46.847Z,98234.22
2022-08-08T00:41:10.838Z,98234.56
2022-08-08T00:44:17.828Z,98234.69
2022-08-08T00:47:23.639Z,98235.53
2022-08-08T00:50:30.188Z,98233.78
2022-08-08T00:53:06.740Z,98234.59
2022-08-08T00:56:17.902Z,98222.22
2022-08-08T00:59:44.432Z,98227.31
2022-08-08T01:04:02.189Z,98224.81
2022-08-08T01:06:16.189Z,98217.16
2022-08-08T01:09:35.450Z,98215.03
2022-08-08T01:12:17.748Z,98220.00
2022-08-08T01:15:43.408Z,98215.53
2022-08-08T01:18:52.782Z,98218.44
2022-08-08T01:22:11.901Z,98214.09
2022-08-08T01:25:39.925Z,98218.94
2022-08-08T01:28:18.620Z,98227.34
2022-08-08T01:31:10.406Z,98216.47
2022-08-08T01:34:37.567Z,98220.63
2022-08-08T01:37:57.896Z,98222.75
2022-08-08T01:40:31.259Z,98229.00
2022-08-08T01:43:06.944Z,98226.28
2022-08-08T01:45:56.455Z,98225.59
2022-08-08T01:48:43.808Z,98222.06
2022-08-08T01:53:01.089Z,98222.75
2022-08-08T01:55:45.633Z,98228.81
2022-08-08T01:57:49.015Z,98221.94
2022-08-08T02:00:24.014Z,98222.69
2022-08-08T02:03:55.433Z,98219.50
2022-08-08T02:06:32.436Z,98219.50
2022-08-08T02:09:17.638Z,98217.81
2022-08-08T02:11:52.865Z,98226.22
2022-08-08T02:14:49.977Z,98220.34
2022-08-08T02:17:36.472Z,98226.34
2022-08-08T02:21:00.695Z,98226.94
2022-08-08T02:23:16.076Z,98226.13
2022-08-08T02:25:53.403Z,98220.69
2022-08-08T02:28:35.755Z,98225.88
2022-08-08T02:31:19.764Z,98213.81
2022-08-08T02:34:15.045Z,98217.84
2022-08-08T02:37:02.783Z,98216.06
2022-08-08T02:39:59.852Z,98212.78
2022-08-08T02:44:38.659Z,98207.22
2022-08-08T02:46:26.322Z,98220.09
2022-08-08T02:49:35.880Z,98218.34
2022-08-08T02:52:51.362Z,98221.63
2022-08-08T02:55:37.439Z,98223.38
2022-08-08T02:58:47.595Z,98218.28
2022-08-08T03:02:20.226Z,98227.94
2022-08-08T03:05:45.121Z,98229.25
2022-08-08T03:08:52.339Z,98226.41
2022-08-08T03:12:05.954Z,98231.13
2022-08-08T03:15:59.222Z,98239.50
2022-08-08T03:18:06.468Z,98238.78
2022-08-08T03:20:43.415Z,98233.25
2022-08-08T03:23:17.634Z,98235.72
2022-08-08T03:25:50.257Z,98234.66
2022-08-08T03:28:21.744Z,98245.63
2022-08-08T03:31:22.057Z,98243.97
2022-08-08T03:33:55.319Z,98243.63
2022-08-08T03:36:30.624Z,98255.63
2022-08-08T03:39:14.839Z,98250.22
2022-08-08T03:42:12.391Z,98263.31
2022-08-08T03:44:34.048Z,98253.16
2022-08-08T03:47:19.251Z,98266.13
2022-08-08T03:49:59.994Z,98267.41
2022-08-08T03:52:31.277Z,98270.38
2022-08-08T03:55:10.538Z,98271.41
2022-08-08T03:58:35.798Z,98271.41
2022-08-08T04:01:01.401Z,98276.34
2022-08-08T04:03:58.089Z,98276.69
2022-08-08T04:06:14.531Z,98270.91
2022-08-08T04:08:45.980Z,98278.22
2022-08-08T04:11:17.336Z,98280.56
2022-08-08T04:14:03.265Z,98283.50
2022-08-08T04:16:38.581Z,98289.53
2022-08-08T04:19:23.509Z,98289.84
2022-08-08T04:21:51.927Z,98290.31
2022-08-08T04:24:29.374Z,98290.06
2022-08-08T04:27:00.851Z,98294.56
2022-08-08T04:29:33.220Z,98293.03
2022-08-08T04:32:04.995Z,98290.38
2022-08-08T04:34:49.277Z,98296.19
2022-08-08T04:37:26.342Z,98295.38
2022-08-08T04:40:06.906Z,98302.22
2022-08-08T04:42:37.328Z,98301.84
2022-08-08T04:45:14.701Z,98310.81
2022-08-08T04:47:46.456Z,98307.03
2022-08-08T04:50:23.799Z,98311.97
2022-08-08T04:53:00.674Z,98316.84
2022-08-08T04:55:47.078Z,98309.84
2022-08-08T04:58:17.690Z,98313.03
2022-08-08T05:00:48.614Z,98311.34
2022-08-08T05:03:18.842Z,98313.72
2022-08-08T05:06:12.556Z,98312.09
2022-08-08T05:08:43.113Z,98321.28
2022-08-08T05:11:17.400Z,98325.19
2022-08-08T05:13:57.975Z,98316.25
2022-08-08T05:16:54.720Z,98321.94
2022-08-08T05:20:09.733Z,98323.63
2022-08-08T05:22:04.930Z,98326.22
2022-08-08T05:24:34.731Z,98326.16
2022-08-08T05:27:05.619Z,98323.03
2022-08-08T05:29:35.746Z,98335.25
2022-08-08T05:32:06.624Z,98339.31
2022-08-08T05:34:37.033Z,98341.97
2022-08-08T05:37:15.900Z,98331.16
2022-08-08T05:39:51.102Z,98340.34
2022-08-08T05:42:25.889Z,98331.53
2022-08-08T05:44:57.410Z,98318.31
2022-08-08T05:47:41.542Z,98333.84
2022-08-08T05:50:18.687Z,98334.22
2022-08-08T05:52:46.491Z,98334.13
2022-08-08T05:55:14.376Z,98343.16
2022-08-08T05:58:05.554Z,98349.44
2022-08-08T06:00:34.162Z,98347.19
2022-08-08T06:03:17.268Z,98349.34
2022-08-08T06:05:58.763Z,98351.41
2022-08-08T06:08:34.549Z,98344.91
2022-08-08T06:11:04.361Z,98342.53
2022-08-08T06:13:36.587Z,98349.97
2022-08-08T06:16:19.048Z,98352.50
2022-08-08T06:18:50.193Z,98354.31
2022-08-08T06:21:32.671Z,98360.72
2022-08-08T06:24:13.812Z,98353.41
2022-08-08T06:26:57.629Z,98353.16
2022-08-08T06:29:59.549Z,98361.84
2022-08-08T06:32:29.927Z,98356.59
2022-08-08T06:35:57.144Z,98358.13
2022-08-08T06:37:56.025Z,98362.97
2022-08-08T06:40:30.082Z,98364.16
2022-08-08T06:43:05.667Z,98360.78
2022-08-08T06:45:36.366Z,98365.34
2022-08-08T06:48:06.746Z,98360.84
2022-08-08T06:50:38.817Z,98358.31
2022-08-08T06:53:10.076Z,98364.69
2022-08-08T06:55:47.082Z,98366.72
2022-08-08T06:58:15.291Z,98361.31
2022-08-08T07:00:50.221Z,98363.88
2022-08-08T07:03:52.765Z,98362.31
2022-08-08T07:06:32.667Z,98358.09
2022-08-08T07:09:15.262Z,98361.06
2022-08-08T07:11:51.041Z,98369.75
2022-08-08T07:14:22.575Z,98372.63
2022-08-08T07:17:09.383Z,98363.91
2022-08-08T07:19:56.014Z,98366.56
2022-08-08T07:22:38.583Z,98370.00
2022-08-08T07:25:10.764Z,98369.84
2022-08-08T07:28:01.732Z,98369.13
2022-08-08T07:30:34.947Z,98379.00
2022-08-08T07:33:03.003Z,98377.19
2022-08-08T07:35:35.526Z,98379.00
2022-08-08T07:38:18.348Z,98378.81
2022-08-08T07:40:55.153Z,98371.00
2022-08-08T07:43:35.307Z,98375.72
2022-08-08T07:46:24.125Z,98371.94
2022-08-08T07:48:53.754Z,98375.31
2022-08-08T07:51:45.239Z,98373.84
2022-08-08T07:54:26.633Z,98375.94
2022-08-08T07:57:04.290Z,98379.78
2022-08-08T07:59:46.191Z,98374.56
2022-08-08T08:02:37.147Z,98375.66
2022-08-08T08:05:15.342Z,98371.97
2022-08-08T08:07:53.077Z,98381.81
2022-08-08T08:10:30.444Z,98381.34
2022-08-08T08:13:25.497Z,98381.16
2022-08-08T08:16:11.369Z,98385.06
2022-08-08T08:18:52.171Z,98377.88
2022-08-08T08:21:44.343Z,98383.91
2022-08-08T08:24:18.630Z,98387.41
2022-08-08T08:26:52.579Z,98385.69
2022-08-08T08:29:22.472Z,98386.22
2022-08-08T08:31:53.964Z,98386.72
2022-08-08T08:34:32.496Z,98385.81
2022-08-08T08:37:03.491Z,98386.56
2022-08-08T08:39:59.793Z,98381.13
2022-08-08T08:42:29.285Z,98383.19
2022-08-08T08:45:21.097Z,98386.03
2022-08-08T08:47:54.593Z,98385.56
2022-08-08T08:50:34.004Z,98385.72
2022-08-08T08:53:27.666Z,98384.56
2022-08-08T08:55:55.847Z,98386.94
2022-08-08T08:58:32.895Z,98383.31
2022-08-08T09:01:08.904Z,98379.28
2022-08-08T09:03:47.562Z,98377.31
2022-08-08T09:06:26.452Z,98379.22
2022-08-08T09:09:07.153Z,98379.66
2022-08-08T09:11:47.768Z,98390.47
2022-08-08T09:14:27.056Z,98374.88
2022-08-08T09:16:55.838Z,98379.91
2022-08-08T09:22:01.166Z,98376.25
2022-08-08T09:22:12.403Z,98376.91
2022-08-08T09:24:48.123Z,98380.31
2022-08-08T09:27:56.844Z,98370.50
2022-08-08T09:30:17.534Z,98378.88
2022-08-08T09:33:54.428Z,98387.75
2022-08-08T09:35:48.863Z,98381.69
2022-08-08T09:38:32.810Z,98380.03
2022-08-08T09:41:06.359Z,98377.06
2022-08-08T09:44:05.340Z,98379.41
2022-08-08T09:46:35.731Z,98375.22
2022-08-08T09:49:41.057Z,98363.75
2022-08-08T09:52:07.109Z,98368.53
2022-08-08T09:54:44.010Z,98366.63
2022-08-08T09:57:16.978Z,98366.09
2022-08-08T10:00:14.644Z,98356.97
2022-08-08T10:02:40.505Z,98355.38
2022-08-08T10:05:14.580Z,98361.75
2022-08-08T10:07:59.959Z,98353.47
2022-08-08T10:10:31.845Z,98344.75
2022-08-08T10:13:06.075Z,98345.78
2022-08-08T10:16:01.005Z,98352.66
2022-08-08T10:18:31.473Z,98356.00
2022-08-08T10:21:23.240Z,98347.22
2022-08-08T10:23:58.298Z,98345.59
2022-08-08T10:26:58.615Z,98354.88
2022-08-08T10:29:30.608Z,98343.94
2022-08-08T10:32:37.317Z,98341.75
2022-08-08T10:35:10.673Z,98343.84
2022-08-08T10:37:43.185Z,98342.59
2022-08-08T10:40:17.168Z,98335.69
2022-08-08T10:42:49.448Z,98331.31
2022-08-08T10:45:17.986Z,98341.72
2022-08-08T10:47:55.602Z,98337.31
2022-08-08T10:50:25.944Z,98343.34
2022-08-08T10:53:02.465Z,98331.81
2022-08-08T10:55:40.494Z,98333.50
2022-08-08T10:58:11.982Z,98323.63
2022-08-08T11:00:53.053Z,98336.19
2022-08-08T11:04:00.688Z,98335.94
2022-08-08T11:06:31.909Z,98334.03
2022-08-08T11:09:09.591Z,98333.16
2022-08-08T11:12:04.871Z,98330.19
2022-08-08T11:14:32.570Z,98325.53
2022-08-08T11:17:00.189Z,98330.94
2022-08-08T11:19:31.734Z,98326.53
2022-08-08T11:22:04.104Z,98316.81
2022-08-08T11:24:35.867Z,98322.50
2022-08-08T11:27:19.294Z,98338.38
2022-08-08T11:30:19.564Z,98329.09
2022-08-08T11:32:47.338Z,98318.06
2022-08-08T11:35:27.286Z,98325.09
2022-08-08T11:38:35.086Z,98314.66
2022-08-08T11:40:54.856Z,98301.81
2022-08-08T11:43:25.919Z,98302.84
2022-08-08T11:46:17.366Z,98302.19
2022-08-08T11:48:47.841Z,98306.91
2022-08-08T11:51:38.969Z,98302.94
2022-08-08T11:54:32.163Z,98313.00
2022-08-08T11:57:17.087Z,98316.91
2022-08-08T12:00:01.346Z,98309.22
2022-08-08T12:02:33.471Z,98308.09
2022-08-08T12:05:12.440Z,98305.53
2022-08-08T12:07:53.207Z,98295.81
2022-08-08T12:10:23.071Z,98297.84
2022-08-08T12:12:54.696Z,98295.06
2022-08-08T12:15:29.409Z,98302.53
2022-08-08T12:17:57.217Z,98298.50
2022-08-08T12:20:38.249Z,98289.97
2022-08-08T12:23:25.152Z,98296.28
2022-08-08T12:25:56.697Z,98283.38
2022-08-08T12:28:24.819Z,98288.50
2022-08-08T12:30:53.440Z,98285.09
2022-08-08T12:33:37.253Z,98286.25
2022-08-08T12:36:12.150Z,98290.84
2022-08-08T12:38:55.544Z,98285.25
2022-08-08T12:41:33.781Z,98279.88
2022-08-08T12:44:07.681Z,98272.25
2022-08-08T12:46:35.861Z,98275.66
2022-08-08T12:49:29.567Z,98269.88
2022-08-08T12:52:00.063Z,98274.09
2022-08-08T12:54:36.008Z,98280.00
2022-08-08T12:57:15.173Z,98278.97
2022-08-08T13:00:05.828Z,98278.09
2022-08-08T13:02:51.841Z,98281.63
2022-08-08T13:05:26.720Z,98272.28
2022-08-08T13:08:18.495Z,98283.59
2022-08-08T13:10:56.871Z,98276.66
2022-08-08T13:13:35.352Z,98280.53
2022-08-08T13:16:18.762Z,98270.75
2022-08-08T13:18:55.754Z,98267.50
2022-08-08T13:21:49.094Z,98270.50
2022-08-08T13:24:18.514Z,98269.91
2022-08-08T13:27:02.755Z,98268.91
2022-08-08T13:29:40.574Z,98252.34
2022-08-08T13:32:10.776Z,98242.56
2022-08-08T13:34:40.475Z,98254.06
2022-08-08T13:37:11.076Z,98250.41
2022-08-08T13:39:50.335Z,98250.09
2022-08-08T13:42:20.940Z,98250.56
2022-08-08T13:44:55.582Z,98247.63
2022-08-08T13:47:24.109Z,98238.59
2022-08-08T13:50:39.819Z,98237.16
2022-08-08T13:52:48.508Z,98234.00
2022-08-08T13:55:29.299Z,98228.81
2022-08-08T13:58:08.103Z,98229.16
2022-08-08T14:00:45.974Z,98218.72
2022-08-08T14:03:46.989Z,98230.88
2022-08-08T14:06:09.312Z,98225.47
2022-08-08T14:08:58.323Z,98233.56
2022-08-08T14:11:28.325Z,98221.47
2022-08-08T14:14:00.382Z,98230.38
2022-08-08T14:16:29.808Z,98227.69
2022-08-08T14:18:58.850Z,98228.09
2022-08-08T14:21:40.566Z,98225.88
2022-08-08T14:24:30.685Z,98218.75
2022-08-08T14:26:58.502Z,98221.91
2022-08-08T14:29:30.190Z,98223.38
2022-08-08T14:32:09.037Z,98225.69
2022-08-08T14:34:43.207Z,98225.63
2022-08-08T14:37:12.624Z,98225.53
2022-08-08T14:39:48.276Z,98211.25
2022-08-08T14:42:17.242Z,98212.34
2022-08-08T14:44:57.460Z,98207.00
2022-08-08T14:47:30.344Z,98207.63
2022-08-08T14:50:15.064Z,98218.00
2022-08-08T14:52:51.819Z,98211.00
2022-08-08T14:55:22.765Z,98210.81
2022-08-08T15:00:58.158Z,98211.84
2022-08-08T15:03:26.026Z,98213.97
2022-08-08T15:05:57.829Z,98212.50
2022-08-08T15:08:35.185Z,98212.84
2022-08-08T15:11:10.216Z,98214.75
2022-08-08T15:14:01.797Z,98207.69
2022-08-08T15:16:29.670Z,98204.78
2022-08-08T15:19:02.965Z,98209.19
2022-08-08T15:21:30.621Z,98208.03
2022-08-08T15:23:58.801Z,98208.31
2022-08-08T15:26:28.981Z,98209.34
2022-08-08T15:28:57.115Z,98201.63
2022-08-08T15:32:02.567Z,98207.31
2022-08-08T15:34:29.919Z,98205.75
2022-08-08T15:37:02.339Z,98205.22
2022-08-08T15:39:37.432Z,98207.41
2022-08-08T15:42:13.046Z,98205.22
2022-08-08T15:44:46.755Z,98210.03
2022-08-08T15:47:15.664Z,98198.34
2022-08-08T15:49:49.010Z,98199.78
2022-08-08T15:52:20.771Z,98208.84
2022-08-08T15:54:51.819Z,98204.69
2022-08-08T15:57:21.342Z,98211.97
2022-08-08T16:00:06.656Z,98204.75
2022-08-08T16:02:37.518Z,98205.56
2022-08-08T16:05:15.533Z,98200.50
2022-08-08T16:07:52.078Z,98197.75
2022-08-08T16:13:03.741Z,98194.28
2022-08-08T16:13:27.907Z,98186.81
2022-08-08T16:16:13.173Z,98191.16
2022-08-08T16:18:53.197Z,98197.19
2022-08-08T16:21:27.908Z,98194.19
2022-08-08T16:23:57.778Z,98201.81
2022-08-08T16:26:34.479Z,98201.13
2022-08-08T16:29:08.068Z,98195.59
2022-08-08T16:31:40.265Z,98196.91
2022-08-08T16:34:08.926Z,98188.22
2022-08-08T16:36:38.297Z,98197.72
2022-08-08T16:39:16.997Z,98197.50
2022-08-08T16:42:01.191Z,98196.44
2022-08-08T16:44:33.693Z,98196.91
2022-08-08T16:47:16.943Z,98190.19
2022-08-08T16:49:44.645Z,98196.31
2022-08-08T16:55:18.037Z,98194.50
2022-08-08T16:55:33.806Z,98193.91
2022-08-08T16:58:13.074Z,98193.78
2022-08-08T17:00:42.995Z,98198.09
2022-08-08T17:03:18.175Z,98189.44
2022-08-08T17:05:54.103Z,98189.22
2022-08-08T17:08:23.516Z,98194.72
2022-08-08T17:10:57.787Z,98199.69
2022-08-08T17:13:27.593Z,98199.88
2022-08-08T17:16:15.290Z,98200.06
2022-08-08T17:18:45.525Z,98200.38
2022-08-08T17:21:13.870Z,98203.63
2022-08-08T17:24:00.861Z,98205.69
2022-08-08T17:26:30.909Z,98212.53
2022-08-08T17:28:58.925Z,98209.25
2022-08-08T17:31:45.126Z,98206.00
2022-08-08T17:34:49.558Z,98207.44
2022-08-08T17:37:03.740Z,98211.34
2022-08-08T17:40:04.496Z,98203.63
2022-08-08T17:42:21.750Z,98214.75
2022-08-08T17:44:52.493Z,98216.69
2022-08-08T17:47:24.372Z,98220.28
2022-08-08T17:50:00.759Z,98215.16
2022-08-08T17:52:30.185Z,98216.28
2022-08-08T17:54:59.826Z,98219.28
2022-08-08T17:57:28.907Z,98224.31
2022-08-08T18:00:03.560Z,98224.56
2022-08-08T18:02:31.175Z,98226.59
2022-08-08T18:05:00.971Z,98235.72
2022-08-08T18:08:02.608Z,98230.47
2022-08-08T18:10:31.666Z,98236.59
2022-08-08T18:13:01.775Z,98234.75
2022-08-08T18:15:31.279Z,98229.53
2022-08-08T18:18:09.188Z,98239.44
2022-08-08T18:20:55.347Z,98243.84
2022-08-08T18:23:27.572Z,98235.69
2022-08-08T18:26:01.475Z,98245.25
2022-08-08T18:28:34.853Z,98248.78
2022-08-08T18:31:19.634Z,98249.13
2022-08-08T18:34:11.746Z,98248.59
2022-08-08T18:36:35.986Z,98257.66
2022-08-08T18:39:04.886Z,98248.38
2022-08-08T18:41:51.216Z,98254.09
2022-08-08T18:44:22.606Z,98251.66
2022-08-08T18:46:58.041Z,98270.88
2022-08-08T18:49:32.254Z,98269.00
2022-08-08T18:52:08.534Z,98277.47
2022-08-08T18:55:00.823Z,98269.81
2022-08-08T18:57:40.817Z,98277.50
2022-08-08T19:00:16.941Z,98293.16
2022-08-08T19:02:56.579Z,98290.13
2022-08-08T19:05:30.633Z,98286.28
2022-08-08T19:08:10.183Z,98296.72
2022-08-08T19:10:54.594Z,98298.91
2022-08-08T19:13:52.570Z,98306.03
2022-08-08T19:16:19.163Z,98301.63
2022-08-08T19:18:53.164Z,98305.75
2022-08-08T19:21:33.206Z,98300.13
2022-08-08T19:24:05.721Z,98308.22
2022-08-08T19:26:37.279Z,98317.25
2022-08-08T19:29:08.340Z,98312.31
2022-08-08T19:31:36.625Z,98325.75
2022-08-08T19:34:36.660Z,98326.84
2022-08-08T19:36:58.932Z,98329.34
2022-08-08T19:39:30.741Z,98336.38
2022-08-08T19:42:03.798Z,98330.06
2022-08-08T19:44:45.448Z,98339.63
2022-08-08T19:47:23.940Z,98341.97
2022-08-08T19:49:59.779Z,98343.25
2022-08-08T19:52:35.373Z,98344.25
2022-08-08T19:55:09.615Z,98347.16
2022-08-08T19:57:41.248Z,98348.22
2022-08-08T20:00:29.187Z,98345.88
2022-08-08T20:02:58.745Z,98349.56
2022-08-08T20:06:14.153Z,98349.66
2022-08-08T20:08:32.159Z,98356.72
2022-08-08T20:11:01.387Z,98360.38
2022-08-08T20:14:32.759Z,98362.88
2022-08-08T20:16:23.266Z,98362.47
2022-08-08T20:19:01.489Z,98362.47
2022-08-08T20:21:32.074Z,98362.97
2022-08-08T20:24:07.688Z,98363.34
2022-08-08T20:26:41.825Z,98360.34
2022-08-08T20:29:15.230Z,98363.59
2022-08-08T20:32:02.703Z,98363.53
2022-08-08T20:34:36.871Z,98369.75
2022-08-08T20:37:15.398Z,98378.44
2022-08-08T20:39:52.074Z,98378.59
2022-08-08T20:42:28.151Z,98370.75
2022-08-08T20:45:00.221Z,98376.78
2022-08-08T20:47:36.375Z,98376.50
2022-08-08T20:50:10.160Z,98376.19
2022-08-08T20:52:39.610Z,98370.00
2022-08-08T20:55:22.397Z,98378.97
2022-08-08T20:57:52.514Z,98371.63
2022-08-08T21:00:20.925Z,98380.97
2022-08-08T21:02:53.187Z,98377.41
2022-08-08T21:05:21.547Z,98378.47
2022-08-08T21:08:33.413Z,98379.47
2022-08-08T21:10:40.835Z,98380.78
2022-08-08T21:13:08.965Z,98391.56
2022-08-08T21:16:05.483Z,98381.34
2022-08-08T21:18:28.039Z,98388.94
2022-08-08T21:20:56.605Z,98394.28
2022-08-08T21:23:58.690Z,98391.25
2022-08-08T21:26:13.422Z,98394.34
2022-08-08T21:28:55.841Z,98400.78
2022-08-08T21:31:53.451Z,98399.91
2022-08-08T21:34:20.066Z,98406.91
2022-08-08T21:36:49.382Z,98401.31
2022-08-08T21:39:17.582Z,98402.72
2022-08-08T21:41:53.912Z,98403.38
2022-08-08T21:44:27.216Z,98405.16
2022-08-08T21:48:06.529Z,98409.28
2022-08-08T21:49:46.655Z,98415.38
2022-08-08T21:54:33.263Z,98407.75
2022-08-08T21:55:04.330Z,98408.31
2022-08-08T21:58:05.202Z,98413.34
2022-08-08T22:00:40.537Z,98416.84
2022-08-08T22:03:11.206Z,98414.94
2022-08-08T22:05:48.370Z,98414.72
2022-08-08T22:08:16.503Z,98414.13
2022-08-08T22:10:52.768Z,98419.28
2022-08-08T22:13:22.471Z,98414.88
2022-08-08T22:15:59.747Z,98414.03
2022-08-08T22:18:30.955Z,98412.06
2022-08-08T22:21:14.524Z,98412.59
2022-08-08T22:23:50.254Z,98412.81
2022-08-08T22:26:29.116Z,98408.69
2022-08-08T22:29:13.892Z,98408.13
2022-08-08T22:31:58.364Z,98407.25
2022-08-08T22:34:31.565Z,98408.34
2022-08-08T22:37:03.919Z,98407.19
2022-08-08T22:39:46.297Z,98400.03
2022-08-08T22:42:27.098Z,98404.91
2022-08-08T22:44:55.827Z,98411.97
2022-08-08T22:47:24.348Z,98405.97
2022-08-08T22:50:04.950Z,98407.28
2022-08-08T22:54:27.493Z,98410.78
2022-08-08T22:55:58.263Z,98411.28
2022-08-08T22:58:27.077Z,98410.16
2022-08-08T23:01:00.276Z,98405.75
2022-08-08T23:03:34.240Z,98419.69
2022-08-08T23:06:17.086Z,98419.38
2022-08-08T23:08:55.061Z,98412.78
2022-08-08T23:11:58.173Z,98412.78
2022-08-08T23:14:12.452Z,98417.28
2022-08-08T23:16:44.182Z,98414.81
2022-08-08T23:19:15.308Z,98412.91
2022-08-08T23:21:46.882Z,98412.31
2022-08-08T23:24:22.193Z,98411.44
2022-08-08T23:26:55.646Z,98420.63
2022-08-08T23:29:24.782Z,98431.78
2022-08-08T23:31:53.291Z,98424.38
2022-08-08T23:34:24.144Z,98424.84
2022-08-08T23:36:57.869Z,98427.25
2022-08-08T23:39:32.054Z,98423.97
2022-08-08T23:42:09.535Z,98426.06
2022-08-08T23:44:38.583Z,98432.31
2022-08-08T23:49:04.184Z,98432.06
2022-08-08T23:50:01.152Z,98432.28
2022-08-08T23:52:33.996Z,98435.75
2022-08-08T23:55:14.734Z,98434.59
2022-08-08T23:57:53.004Z,98435.34
